Albayzin — 5BLJ4 — position and weather

sailwx.info

Track history (hours):
 
Tides and Currents Weather Stations Pressure Air Temp Water Temp Dewpoint Dewpoint Depression Visibility Wind Speed Wind Dir Waves Ship Positions

Albayzin

Last reported at 2018-Jun-18 04:56 UTC. Time now 2018-Jun-18 15:44 UTC.
Position N 35°45' W 007°09'.

Length 186 m; draft 6.5 m.

Type: Passenger vessel. MMSI: 210300000.

Date/timePositionNaut miles runAvg speedWind from/ knotsBaromVisibWave heightAir tempDewpointWater temp
2018-Jun-18 04:56N 35°45' W 007°09'45818.9
2018-Jun-17 04:38N 29°44' W 012°46'3019.0
2018-Jun-17 03:04N 29°21' W 013°07'119.2
2018-Jun-17 03:00N 29°20' W 013°08'1019.3
2018-Jun-17 02:30N 29°12' W 013°15'1019.6
2018-Jun-17 02:00N 29°04' W 013°22'1019.6
2018-Jun-17 01:30N 28°57' W 013°29'2 0.9
2018-Jun-16 22:49N 28°58' W 013°32'0 1.1
2018-Jun-16 22:30N 28°58' W 013°32'510.3
2018-Jun-16 22:01N 28°53' W 013°34'1019.7
2018-Jun-16 21:31N 28°45' W 013°40'1120.1
2018-Jun-16 20:57N 28°35' W 013°45'7 4.2
2018-Jun-16 19:14N 28°30' W 013°51'0 0.0
2018-Jun-16 18:59N 28°30' W 013°51'1812.5
2018-Jun-16 17:32N 28°12' W 013°56'118.8
2018-Jun-16 17:29N 28°12' W 013°57'1019.9
2018-Jun-16 17:00N 28°07' W 014°06'1120.1
2018-Jun-16 16:29N 28°01' W 014°17'919.0
2018-Jun-16 16:00N 28°00' W 014°27'1019.4
2018-Jun-16 15:29N 28°02' W 014°38'919.8
2018-Jun-16 15:00N 28°03' W 014°49'1019.3
2018-Jun-16 14:30N 28°04' W 014°60'1019.4
2018-Jun-16 14:00N 28°05' W 015°11'1019.6
2018-Jun-16 13:30N 28°07' W 015°21'4 6.8
2018-Jun-16 12:58N 28°09' W 015°25'0 0.0
2018-Jun-16 12:28N 28°09' W 015°25'0 0.0
2018-Jun-16 11:58N 28°09' W 015°25'0 0.0
2018-Jun-16 11:28N 28°09' W 015°25'0 0.0
2018-Jun-16 10:58N 28°09' W 015°25'0 0.0
2018-Jun-16 10:28N 28°09' W 015°25'0 0.0
2018-Jun-16 09:58N 28°09' W 015°25'0 0.0
2018-Jun-16 09:28N 28°09' W 015°25'0 0.0
2018-Jun-16 08:58N 28°09' W 015°25'0 0.0
2018-Jun-16 08:19N 28°09' W 015°25'0 0.0
2018-Jun-16 07:49N 28°09' W 015°25'0 0.0
2018-Jun-16 07:22N 28°09' W 015°25'0 0.0
2018-Jun-16 06:57N 28°09' W 015°25'0 1.1
2018-Jun-16 06:30N 28°08' W 015°25'3 6.8
2018-Jun-16 06:00N 28°10' W 015°22'1019.2
2018-Jun-16 05:30N 28°20' W 015°23'713.5
2018-Jun-16 05:00N 28°26' W 015°26'612.7
2018-Jun-16 04:30N 28°33' W 015°28'612.1
2018-Jun-16 04:00N 28°38' W 015°30'4 7.7
2018-Jun-16 03:30N 28°40' W 015°34'611.3
2018-Jun-16 03:00N 28°36' W 015°38'611.3
2018-Jun-16 02:30N 28°32' W 015°43'611.1
2018-Jun-16 02:00N 28°27' W 015°47'511.1
2018-Jun-16 01:30N 28°23' W 015°51'510.9
2018-Jun-16 01:00N 28°19' W 015°55'510.3
2018-Jun-16 00:31N 28°19' W 016°01'611.3
2018-Jun-16 00:00N 28°22' W 016°06'611.5
2018-Jun-15 23:30N 28°26' W 016°11'4 8.6
2018-Jun-15 23:00N 28°29' W 016°15'0 0.0
2018-Jun-15 22:28N 28°29' W 016°15'0 0.0
2018-Jun-15 21:58N 28°29' W 016°15'0 0.0
2018-Jun-15 21:28N 28°29' W 016°15'0 0.0
2018-Jun-15 20:58N 28°29' W 016°15'0 0.8
2018-Jun-15 20:31N 28°29' W 016°14'714.8
2018-Jun-15 20:01N 28°31' W 016°06'27 1.4
2018-Jun-15 01:08N 28°08' W 016°23'213.6
2018-Jun-15 00:58N 28°10' W 016°22'613.5
2018-Jun-15 00:30N 28°15' W 016°19'713.5
2018-Jun-15 00:00N 28°22' W 016°16'713.3
2018-Jun-14 23:30N 28°28' W 016°13'2 3.0
2018-Jun-14 22:59N 28°29' W 016°15'0 0.0
2018-Jun-14 22:29N 28°29' W 016°15'0 0.0
2018-Jun-14 21:59N 28°29' W 016°15'0 0.0
2018-Jun-14 21:29N 28°29' W 016°15'0 0.0
2018-Jun-14 20:59N 28°29' W 016°15'0 0.0
2018-Jun-14 20:29N 28°29' W 016°15'0 0.0
2018-Jun-14 19:59N 28°29' W 016°15'0 0.0
2018-Jun-14 19:29N 28°29' W 016°15'0 0.0
2018-Jun-14 18:59N 28°29' W 016°15'0 0.0
2018-Jun-14 18:29N 28°29' W 016°15'0 0.0
2018-Jun-14 17:59N 28°29' W 016°15'0 0.0
2018-Jun-14 17:29N 28°29' W 016°15'0 0.0
2018-Jun-14 16:59N 28°29' W 016°15'0 0.0
2018-Jun-14 16:29N 28°29' W 016°15'0 0.0
2018-Jun-14 15:59N 28°29' W 016°15'0 0.2
2018-Jun-14 15:30N 28°28' W 016°15'611.3
2018-Jun-14 15:00N 28°27' W 016°08'1020.4
2018-Jun-14 14:30N 28°24' W 015°57'1020.3
2018-Jun-14 14:00N 28°20' W 015°47'1020.3
2018-Jun-14 13:30N 28°17' W 015°36'1019.8
2018-Jun-14 13:00N 28°14' W 015°25'713.6
2018-Jun-14 12:30N 28°07' W 015°24'2 3.4
2018-Jun-14 11:54N 28°09' W 015°25'0 0.0
2018-Jun-14 11:27N 28°09' W 015°25'0 0.0
2018-Jun-14 10:57N 28°09' W 015°25'0 0.0
2018-Jun-14 10:27N 28°09' W 015°25'0 0.0
2018-Jun-14 09:57N 28°09' W 015°25'0 0.0
2018-Jun-14 09:27N 28°09' W 015°25'0 0.0
2018-Jun-14 09:00N 28°09' W 015°25'0 0.0
2018-Jun-14 08:15N 28°09' W 015°25'0 0.0
2018-Jun-14 08:00N 28°09' W 015°25'0 0.0
2018-Jun-14 07:30N 28°09' W 015°25'0 0.0
2018-Jun-14 07:00N 28°09' W 015°25'1 2.1
2018-Jun-14 06:30N 28°08' W 015°25'611.9
2018-Jun-14 06:00N 28°09' W 015°19'918.3
2018-Jun-14 05:30N 28°13' W 015°10'918.4
2018-Jun-14 05:00N 28°18' W 015°01'918.4
2018-Jun-14 04:30N 28°23' W 014°52'918.3
2018-Jun-14 04:00N 28°28' W 014°43'918.3
2018-Jun-14 03:30N 28°33' W 014°34'3618.2
2018-Jun-14 01:32N 28°49' W 013°58'418.7
2018-Jun-14 01:20N 28°49' W 013°54'819.1
2018-Jun-14 00:56N 28°49' W 013°45'920.1
2018-Jun-14 00:30N 28°54' W 013°36'6 2.0
2018-Jun-13 21:39N 28°58' W 013°32'0 0.2
2018-Jun-13 21:28N 28°58' W 013°32'2 3.5
2018-Jun-13 20:57N 28°57' W 013°30'919.2
2018-Jun-13 20:30N 29°03' W 013°23'  
2018-Jun-10 00:58N 29°04' W 013°22'919.3
2018-Jun-10 00:30N 28°57' W 013°29'2 1.3
2018-Jun-09 22:38N 28°58' W 013°32'0 1.4
2018-Jun-09 22:23N 28°58' W 013°32'3 9.3
2018-Jun-09 22:00N 28°55' W 013°33'1019.9
2018-Jun-09 21:30N 28°46' W 013°38'1719.7
2018-Jun-09 20:38N 28°31' W 013°47'23 7.1
2018-Jun-09 17:22N 28°10' W 014°00'1020.6
2018-Jun-09 16:52N 28°05' W 014°10'820.3
2018-Jun-09 16:28N 28°01' W 014°18'919.7
2018-Jun-09 16:00N 28°00' W 014°29'2019.8
2018-Jun-09 15:00N 28°03' W 014°51'1019.8
2018-Jun-09 14:30N 28°05' W 015°02'1019.7
2018-Jun-09 14:00N 28°06' W 015°13'1019.6
2018-Jun-09 13:30N 28°07' W 015°24'2 3.3
2018-Jun-09 12:53N 28°09' W 015°25'0 0.0
2018-Jun-09 12:23N 28°09' W 015°25'0 0.0
2018-Jun-09 11:53N 28°09' W 015°25'0 0.0
2018-Jun-09 11:26N 28°09' W 015°25'0 0.0
2018-Jun-09 10:56N 28°09' W 015°25'0 0.0
2018-Jun-09 10:26N 28°09' W 015°25'0 0.0
2018-Jun-09 09:56N 28°09' W 015°25'0 0.0
2018-Jun-09 09:26N 28°09' W 015°25'0 0.0
2018-Jun-09 08:56N 28°09' W 015°25'0 0.0
2018-Jun-09 08:26N 28°09' W 015°25'0 0.0
2018-Jun-09 07:59N 28°09' W 015°25'0 0.0
2018-Jun-09 07:29N 28°09' W 015°25'0 0.1
2018-Jun-09 07:00N 28°09' W 015°25'2 4.0
2018-Jun-09 06:30N 28°07' W 015°24'4 7.6
2018-Jun-09 06:00N 28°10' W 015°21'1019.4
2018-Jun-09 05:30N 28°19' W 015°25'2 4.0
2018-Jun-09 05:00N 28°21' W 015°26'611.6
2018-Jun-09 04:30N 28°26' W 015°29'611.6
2018-Jun-09 04:00N 28°31' W 015°32'510.4
2018-Jun-09 03:30N 28°34' W 015°37'511.0
2018-Jun-09 03:00N 28°32' W 015°42'611.7
2018-Jun-09 02:29N 28°27' W 015°47'612.0
2018-Jun-09 02:00N 28°23' W 015°51'611.6
2018-Jun-09 01:30N 28°18' W 015°55'510.6
2018-Jun-09 01:01N 28°18' W 016°01'611.3
2018-Jun-09 00:30N 28°22' W 016°06'611.7
2018-Jun-09 00:00N 28°26' W 016°11'4 4.8
2018-Jun-08 23:07N 28°29' W 016°15'0 0.0
2018-Jun-08 22:37N 28°29' W 016°15'0 0.0
2018-Jun-08 22:25N 28°29' W 016°15'0 0.0
2018-Jun-08 21:55N 28°29' W 016°15'0 0.0
2018-Jun-08 21:28N 28°29' W 016°15'0 0.0
2018-Jun-08 20:59N 28°29' W 016°15'1 2.1
2018-Jun-08 20:30N 28°29' W 016°13'816.5
2018-Jun-08 20:00N 28°33' W 016°05'  
Track history (hours):
 
Tides and Currents Weather Stations Pressure Air Temp Water Temp Dewpoint Dewpoint Depression Visibility Wind Speed Wind Dir Waves Ship Positions

Albayzin

Last reported at 2018-Jun-18 04:56 UTC. Time now 2018-Jun-18 15:44 UTC.
Position N 35°45' W 007°09'.

Length 186 m; draft 6.5 m.

Type: Passenger vessel. MMSI: 210300000.

Date/timePositionNaut miles runAvg speedWind from/ knotsBaromVisibWave heightAir tempDewpointWater temp
2018-Jun-18 04:56N 35°45' W 007°09'45818.9
2018-Jun-17 04:38N 29°44' W 012°46'3019.0
2018-Jun-17 03:04N 29°21' W 013°07'119.2
2018-Jun-17 03:00N 29°20' W 013°08'1019.3
2018-Jun-17 02:30N 29°12' W 013°15'1019.6
2018-Jun-17 02:00N 29°04' W 013°22'1019.6
2018-Jun-17 01:30N 28°57' W 013°29'2 0.9
2018-Jun-16 22:49N 28°58' W 013°32'0 1.1
2018-Jun-16 22:30N 28°58' W 013°32'510.3
2018-Jun-16 22:01N 28°53' W 013°34'1019.7
2018-Jun-16 21:31N 28°45' W 013°40'1120.1
2018-Jun-16 20:57N 28°35' W 013°45'7 4.2
2018-Jun-16 19:14N 28°30' W 013°51'0 0.0
2018-Jun-16 18:59N 28°30' W 013°51'1812.5
2018-Jun-16 17:32N 28°12' W 013°56'118.8
2018-Jun-16 17:29N 28°12' W 013°57'1019.9
2018-Jun-16 17:00N 28°07' W 014°06'1120.1
2018-Jun-16 16:29N 28°01' W 014°17'919.0
2018-Jun-16 16:00N 28°00' W 014°27'1019.4
2018-Jun-16 15:29N 28°02' W 014°38'919.8
2018-Jun-16 15:00N 28°03' W 014°49'1019.3
2018-Jun-16 14:30N 28°04' W 014°60'1019.4
2018-Jun-16 14:00N 28°05' W 015°11'1019.6
2018-Jun-16 13:30N 28°07' W 015°21'4 6.8
2018-Jun-16 12:58N 28°09' W 015°25'0 0.0
2018-Jun-16 12:28N 28°09' W 015°25'0 0.0
2018-Jun-16 11:58N 28°09' W 015°25'0 0.0
2018-Jun-16 11:28N 28°09' W 015°25'0 0.0
2018-Jun-16 10:58N 28°09' W 015°25'0 0.0
2018-Jun-16 10:28N 28°09' W 015°25'0 0.0
2018-Jun-16 09:58N 28°09' W 015°25'0 0.0
2018-Jun-16 09:28N 28°09' W 015°25'0 0.0
2018-Jun-16 08:58N 28°09' W 015°25'0 0.0
2018-Jun-16 08:19N 28°09' W 015°25'0 0.0
2018-Jun-16 07:49N 28°09' W 015°25'0 0.0
2018-Jun-16 07:22N 28°09' W 015°25'0 0.0
2018-Jun-16 06:57N 28°09' W 015°25'0 1.1
2018-Jun-16 06:30N 28°08' W 015°25'3 6.8
2018-Jun-16 06:00N 28°10' W 015°22'1019.2
2018-Jun-16 05:30N 28°20' W 015°23'713.5
2018-Jun-16 05:00N 28°26' W 015°26'612.7
2018-Jun-16 04:30N 28°33' W 015°28'612.1
2018-Jun-16 04:00N 28°38' W 015°30'4 7.7
2018-Jun-16 03:30N 28°40' W 015°34'611.3
2018-Jun-16 03:00N 28°36' W 015°38'611.3
2018-Jun-16 02:30N 28°32' W 015°43'611.1
2018-Jun-16 02:00N 28°27' W 015°47'511.1
2018-Jun-16 01:30N 28°23' W 015°51'510.9
2018-Jun-16 01:00N 28°19' W 015°55'510.3
2018-Jun-16 00:31N 28°19' W 016°01'611.3
2018-Jun-16 00:00N 28°22' W 016°06'611.5
2018-Jun-15 23:30N 28°26' W 016°11'4 8.6
2018-Jun-15 23:00N 28°29' W 016°15'0 0.0
2018-Jun-15 22:28N 28°29' W 016°15'0 0.0
2018-Jun-15 21:58N 28°29' W 016°15'0 0.0
2018-Jun-15 21:28N 28°29' W 016°15'0 0.0
2018-Jun-15 20:58N 28°29' W 016°15'0 0.8
2018-Jun-15 20:31N 28°29' W 016°14'714.8
2018-Jun-15 20:01N 28°31' W 016°06'27 1.4
2018-Jun-15 01:08N 28°08' W 016°23'213.6
2018-Jun-15 00:58N 28°10' W 016°22'613.5
2018-Jun-15 00:30N 28°15' W 016°19'713.5
2018-Jun-15 00:00N 28°22' W 016°16'713.3
2018-Jun-14 23:30N 28°28' W 016°13'2 3.0
2018-Jun-14 22:59N 28°29' W 016°15'0 0.0
2018-Jun-14 22:29N 28°29' W 016°15'0 0.0
2018-Jun-14 21:59N 28°29' W 016°15'0 0.0
2018-Jun-14 21:29N 28°29' W 016°15'0 0.0
2018-Jun-14 20:59N 28°29' W 016°15'0 0.0
2018-Jun-14 20:29N 28°29' W 016°15'0 0.0
2018-Jun-14 19:59N 28°29' W 016°15'0 0.0
2018-Jun-14 19:29N 28°29' W 016°15'0 0.0
2018-Jun-14 18:59N 28°29' W 016°15'0 0.0
2018-Jun-14 18:29N 28°29' W 016°15'0 0.0
2018-Jun-14 17:59N 28°29' W 016°15'0 0.0
2018-Jun-14 17:29N 28°29' W 016°15'0 0.0
2018-Jun-14 16:59N 28°29' W 016°15'0 0.0
2018-Jun-14 16:29N 28°29' W 016°15'0 0.0
2018-Jun-14 15:59N 28°29' W 016°15'0 0.2
2018-Jun-14 15:30N 28°28' W 016°15'611.3
2018-Jun-14 15:00N 28°27' W 016°08'1020.4
2018-Jun-14 14:30N 28°24' W 015°57'1020.3
2018-Jun-14 14:00N 28°20' W 015°47'1020.3
2018-Jun-14 13:30N 28°17' W 015°36'1019.8
2018-Jun-14 13:00N 28°14' W 015°25'713.6
2018-Jun-14 12:30N 28°07' W 015°24'2 3.4
2018-Jun-14 11:54N 28°09' W 015°25'0 0.0
2018-Jun-14 11:27N 28°09' W 015°25'0 0.0
2018-Jun-14 10:57N 28°09' W 015°25'0 0.0
2018-Jun-14 10:27N 28°09' W 015°25'0 0.0
2018-Jun-14 09:57N 28°09' W 015°25'0 0.0
2018-Jun-14 09:27N 28°09' W 015°25'0 0.0
2018-Jun-14 09:00N 28°09' W 015°25'0 0.0
2018-Jun-14 08:15N 28°09' W 015°25'0 0.0
2018-Jun-14 08:00N 28°09' W 015°25'0 0.0
2018-Jun-14 07:30N 28°09' W 015°25'0 0.0
2018-Jun-14 07:00N 28°09' W 015°25'1 2.1
2018-Jun-14 06:30N 28°08' W 015°25'611.9
2018-Jun-14 06:00N 28°09' W 015°19'918.3
2018-Jun-14 05:30N 28°13' W 015°10'918.4
2018-Jun-14 05:00N 28°18' W 015°01'918.4
2018-Jun-14 04:30N 28°23' W 014°52'918.3
2018-Jun-14 04:00N 28°28' W 014°43'918.3
2018-Jun-14 03:30N 28°33' W 014°34'3618.2
2018-Jun-14 01:32N 28°49' W 013°58'418.7
2018-Jun-14 01:20N 28°49' W 013°54'819.1
2018-Jun-14 00:56N 28°49' W 013°45'920.1
2018-Jun-14 00:30N 28°54' W 013°36'6 2.0
2018-Jun-13 21:39N 28°58' W 013°32'0 0.2
2018-Jun-13 21:28N 28°58' W 013°32'2 3.5
2018-Jun-13 20:57N 28°57' W 013°30'919.2
2018-Jun-13 20:30N 29°03' W 013°23'  
2018-Jun-10 00:58N 29°04' W 013°22'919.3
2018-Jun-10 00:30N 28°57' W 013°29'2 1.3
2018-Jun-09 22:38N 28°58' W 013°32'0 1.4
2018-Jun-09 22:23N 28°58' W 013°32'3 9.3
2018-Jun-09 22:00N 28°55' W 013°33'1019.9
2018-Jun-09 21:30N 28°46' W 013°38'1719.7
2018-Jun-09 20:38N 28°31' W 013°47'23 7.1
2018-Jun-09 17:22N 28°10' W 014°00'1020.6
2018-Jun-09 16:52N 28°05' W 014°10'820.3
2018-Jun-09 16:28N 28°01' W 014°18'919.7
2018-Jun-09 16:00N 28°00' W 014°29'2019.8
2018-Jun-09 15:00N 28°03' W 014°51'1019.8
2018-Jun-09 14:30N 28°05' W 015°02'1019.7
2018-Jun-09 14:00N 28°06' W 015°13'1019.6
2018-Jun-09 13:30N 28°07' W 015°24'2 3.3
2018-Jun-09 12:53N 28°09' W 015°25'0 0.0
2018-Jun-09 12:23N 28°09' W 015°25'0 0.0
2018-Jun-09 11:53N 28°09' W 015°25'0 0.0
2018-Jun-09 11:26N 28°09' W 015°25'0 0.0
2018-Jun-09 10:56N 28°09' W 015°25'0 0.0
2018-Jun-09 10:26N 28°09' W 015°25'0 0.0
2018-Jun-09 09:56N 28°09' W 015°25'0 0.0
2018-Jun-09 09:26N 28°09' W 015°25'0 0.0
2018-Jun-09 08:56N 28°09' W 015°25'0 0.0
2018-Jun-09 08:26N 28°09' W 015°25'0 0.0
2018-Jun-09 07:59N 28°09' W 015°25'0 0.0
2018-Jun-09 07:29N 28°09' W 015°25'0 0.1
2018-Jun-09 07:00N 28°09' W 015°25'2 4.0
2018-Jun-09 06:30N 28°07' W 015°24'4 7.6
2018-Jun-09 06:00N 28°10' W 015°21'1019.4
2018-Jun-09 05:30N 28°19' W 015°25'2 4.0
2018-Jun-09 05:00N 28°21' W 015°26'611.6
2018-Jun-09 04:30N 28°26' W 015°29'611.6
2018-Jun-09 04:00N 28°31' W 015°32'510.4
2018-Jun-09 03:30N 28°34' W 015°37'511.0
2018-Jun-09 03:00N 28°32' W 015°42'611.7
2018-Jun-09 02:29N 28°27' W 015°47'612.0
2018-Jun-09 02:00N 28°23' W 015°51'611.6
2018-Jun-09 01:30N 28°18' W 015°55'510.6
2018-Jun-09 01:01N 28°18' W 016°01'611.3
2018-Jun-09 00:30N 28°22' W 016°06'611.7
2018-Jun-09 00:00N 28°26' W 016°11'4 4.8
2018-Jun-08 23:07N 28°29' W 016°15'0 0.0
2018-Jun-08 22:37N 28°29' W 016°15'0 0.0
2018-Jun-08 22:25N 28°29' W 016°15'0 0.0
2018-Jun-08 21:55N 28°29' W 016°15'0 0.0
2018-Jun-08 21:28N 28°29' W 016°15'0 0.0
2018-Jun-08 20:59N 28°29' W 016°15'1 2.1
2018-Jun-08 20:30N 28°29' W 016°13'816.5
2018-Jun-08 20:00N 28°33' W 016°05'  

Dump ship's entire track history